createdAt,value
2017-12-26T00:02:25.052Z,6.80
2017-12-26T00:04:59.190Z,6.80
2017-12-26T00:07:33.753Z,6.80
2017-12-26T00:10:08.171Z,6.90
2017-12-26T00:12:42.017Z,6.80
2017-12-26T00:15:16.601Z,6.80
2017-12-26T00:17:50.955Z,6.80
2017-12-26T00:20:26.174Z,6.80
2017-12-26T00:23:00.131Z,6.80
2017-12-26T00:25:34.025Z,6.70
2017-12-26T00:28:08.878Z,6.70
2017-12-26T00:30:42.862Z,6.70
2017-12-26T00:33:16.616Z,6.70
2017-12-26T00:35:50.527Z,6.70
2017-12-26T00:38:24.353Z,6.70
2017-12-26T00:40:58.418Z,6.70
2017-12-26T00:43:32.910Z,6.70
2017-12-26T00:46:07.091Z,6.70
2017-12-26T00:48:41.164Z,6.70
2017-12-26T00:51:14.939Z,6.60
2017-12-26T00:53:50.216Z,6.60
2017-12-26T00:56:25.175Z,6.50
2017-12-26T00:58:59.157Z,6.40
2017-12-26T01:01:32.957Z,6.30
2017-12-26T01:04:06.798Z,6.20
2017-12-26T01:06:40.577Z,6.10
2017-12-26T01:09:15.441Z,6.00
2017-12-26T01:11:50.303Z,5.90
2017-12-26T01:14:24.280Z,5.90
2017-12-26T01:16:58.048Z,5.90
2017-12-26T01:19:32.007Z,5.80
2017-12-26T01:22:05.973Z,5.80
2017-12-26T01:24:40.530Z,5.70
2017-12-26T01:27:14.861Z,5.70
2017-12-26T01:29:48.761Z,5.70
2017-12-26T01:32:22.463Z,5.70
2017-12-26T01:34:56.177Z,5.70
2017-12-26T01:37:30.322Z,5.60
2017-12-26T01:40:05.039Z,5.60
2017-12-26T01:42:39.504Z,5.60
2017-12-26T01:45:14.257Z,5.50
2017-12-26T01:47:48.605Z,5.50
2017-12-26T01:50:22.392Z,5.50
2017-12-26T01:52:57.328Z,5.50
2017-12-26T01:55:32.014Z,5.40
2017-12-26T01:58:06.393Z,5.40
2017-12-26T02:00:40.226Z,5.40
2017-12-26T02:03:15.089Z,5.30
2017-12-26T02:05:48.942Z,5.30
2017-12-26T02:08:23.437Z,5.30
2017-12-26T02:10:57.276Z,5.20
2017-12-26T02:13:32.834Z,5.20
2017-12-26T02:16:07.591Z,5.20
2017-12-26T02:18:41.641Z,5.20
2017-12-26T02:21:15.374Z,5.20
2017-12-26T02:23:49.563Z,5.10
2017-12-26T02:26:23.969Z,5.20
2017-12-26T02:28:57.913Z,5.20
2017-12-26T02:31:32.478Z,5.10
2017-12-26T02:34:06.473Z,5.10
2017-12-26T02:36:40.398Z,5.10
2017-12-26T02:39:14.685Z,5.10
2017-12-26T02:41:49.274Z,5.10
2017-12-26T02:44:23.934Z,5.00
2017-12-26T02:46:57.929Z,5.00
2017-12-26T02:49:31.779Z,5.00
2017-12-26T02:52:05.943Z,5.00
2017-12-26T02:54:39.898Z,5.00
2017-12-26T02:57:14.537Z,5.00
2017-12-26T02:59:49.055Z,5.00
2017-12-26T03:02:22.911Z,4.90
2017-12-26T03:04:57.444Z,4.90
2017-12-26T03:07:31.523Z,4.90
2017-12-26T03:10:07.006Z,5.00
2017-12-26T03:12:42.241Z,5.00
2017-12-26T03:15:16.249Z,4.90
2017-12-26T03:17:50.101Z,4.90
2017-12-26T03:20:23.857Z,4.90
2017-12-26T03:22:57.465Z,4.90
2017-12-26T03:25:32.252Z,4.90
2017-12-26T03:28:06.368Z,4.90
2017-12-26T03:30:40.323Z,4.90
2017-12-26T03:33:14.144Z,4.80
2017-12-26T03:35:49.509Z,4.90
2017-12-26T03:38:23.928Z,4.90
2017-12-26T03:40:58.445Z,5.00
2017-12-26T03:43:32.833Z,5.00
2017-12-26T03:46:07.012Z,4.90
2017-12-26T03:48:40.989Z,4.90
2017-12-26T03:51:16.087Z,4.80
2017-12-26T03:53:50.144Z,4.80
2017-12-26T03:56:24.246Z,4.70
2017-12-26T03:58:58.608Z,4.70
2017-12-26T04:01:32.794Z,4.70
2017-12-26T04:04:07.311Z,4.80
2017-12-26T04:06:41.871Z,4.90
2017-12-26T04:09:15.949Z,5.00
2017-12-26T04:11:50.123Z,5.10
2017-12-26T04:14:23.733Z,5.10
2017-12-26T04:16:57.762Z,5.10
2017-12-26T04:19:32.302Z,5.20
2017-12-26T04:22:07.212Z,5.20
2017-12-26T04:24:41.693Z,5.30
2017-12-26T04:27:16.053Z,5.30
2017-12-26T04:29:50.696Z,5.30
2017-12-26T04:32:24.642Z,5.40
2017-12-26T04:34:59.356Z,5.40
2017-12-26T04:37:33.341Z,5.40
2017-12-26T04:40:07.653Z,5.40
2017-12-26T04:42:42.119Z,5.40
2017-12-26T04:45:16.668Z,5.50
2017-12-26T04:47:50.837Z,5.50
2017-12-26T04:50:24.700Z,5.50
2017-12-26T04:52:58.495Z,5.50
2017-12-26T04:55:33.002Z,5.50
2017-12-26T04:58:07.851Z,5.50
2017-12-26T05:00:43.566Z,5.50
2017-12-26T05:03:18.587Z,5.50
2017-12-26T05:05:52.625Z,5.50
2017-12-26T05:08:27.855Z,5.60
2017-12-26T05:11:02.188Z,5.60
2017-12-26T05:13:37.306Z,5.60
2017-12-26T05:16:11.426Z,5.60
2017-12-26T05:18:45.305Z,5.60
2017-12-26T05:21:19.527Z,5.60
2017-12-26T05:23:53.809Z,5.60
2017-12-26T05:26:27.646Z,5.60
2017-12-26T05:29:02.130Z,5.60
2017-12-26T05:31:36.829Z,5.50
2017-12-26T05:34:10.932Z,5.60
2017-12-26T05:36:44.636Z,5.60
2017-12-26T05:39:18.408Z,5.60
2017-12-26T05:41:52.326Z,5.60
2017-12-26T05:44:26.308Z,5.60
2017-12-26T05:47:00.168Z,5.60
2017-12-26T05:49:33.728Z,5.70
2017-12-26T05:52:09.029Z,5.70
2017-12-26T05:54:43.269Z,5.70
2017-12-26T05:57:17.971Z,5.70
2017-12-26T05:59:52.189Z,5.70
2017-12-26T06:02:25.814Z,5.80
2017-12-26T06:05:00.637Z,5.80
2017-12-26T06:07:35.193Z,5.80
2017-12-26T06:10:09.958Z,5.90
2017-12-26T06:12:44.052Z,5.80
2017-12-26T06:15:18.701Z,5.90
2017-12-26T06:17:53.774Z,5.90
2017-12-26T06:20:27.709Z,5.90
2017-12-26T06:23:02.503Z,5.90
2017-12-26T06:25:36.596Z,5.90
2017-12-26T06:28:10.504Z,5.90
2017-12-26T06:30:44.262Z,5.90
2017-12-26T06:33:18.518Z,5.90
2017-12-26T06:35:52.964Z,6.00
2017-12-26T06:38:27.371Z,5.90
2017-12-26T06:41:01.553Z,5.90
2017-12-26T06:43:35.560Z,5.90
2017-12-26T06:46:09.290Z,5.90
2017-12-26T06:48:43.160Z,5.90
2017-12-26T06:51:17.680Z,5.90
2017-12-26T06:53:51.876Z,6.00
2017-12-26T06:56:26.436Z,6.00
2017-12-26T06:59:00.651Z,6.00
2017-12-26T07:01:35.646Z,6.00
2017-12-26T07:04:09.238Z,6.00
2017-12-26T07:06:43.012Z,6.10
2017-12-26T07:09:16.971Z,6.10
2017-12-26T07:11:51.407Z,6.00
2017-12-26T07:14:26.354Z,6.10
2017-12-26T07:17:01.261Z,6.10
2017-12-26T07:19:40.928Z,6.10
2017-12-26T07:22:20.846Z,6.10
2017-12-26T07:24:55.099Z,6.10
2017-12-26T07:27:29.645Z,6.20
2017-12-26T07:30:03.759Z,6.20
2017-12-26T07:32:37.521Z,6.20
2017-12-26T07:35:11.433Z,6.30
2017-12-26T07:37:45.206Z,6.40
2017-12-26T07:40:19.883Z,6.50
2017-12-26T07:42:54.846Z,6.60
2017-12-26T07:45:29.065Z,6.60
2017-12-26T07:48:04.636Z,6.70
2017-12-26T07:50:38.760Z,6.80
2017-12-26T07:53:12.559Z,6.80
2017-12-26T07:55:46.878Z,7.00
2017-12-26T07:58:21.355Z,7.00
2017-12-26T08:00:55.204Z,7.10
2017-12-26T08:03:29.736Z,7.30
2017-12-26T08:06:03.939Z,7.30
2017-12-26T08:08:37.776Z,7.50
2017-12-26T08:11:12.748Z,7.60
2017-12-26T08:13:46.662Z,7.60
2017-12-26T08:16:20.403Z,7.60
2017-12-26T08:18:55.102Z,7.60
2017-12-26T08:21:29.131Z,7.60
2017-12-26T08:24:03.108Z,7.60
2017-12-26T08:26:36.784Z,7.70
2017-12-26T08:29:11.674Z,7.70
2017-12-26T08:31:45.557Z,7.80
2017-12-26T08:34:19.374Z,7.80
2017-12-26T08:36:53.809Z,7.80
2017-12-26T08:39:28.600Z,7.80
2017-12-26T08:42:02.856Z,7.80
2017-12-26T08:44:36.670Z,7.80
2017-12-26T08:47:10.551Z,7.90
2017-12-26T08:49:44.521Z,8.00
2017-12-26T08:52:18.682Z,8.00
2017-12-26T08:54:52.405Z,8.10
2017-12-26T08:57:26.681Z,8.10
2017-12-26T09:00:01.405Z,8.10
2017-12-26T09:02:36.295Z,8.30
2017-12-26T09:05:10.755Z,8.40
2017-12-26T09:07:45.704Z,8.40
2017-12-26T09:10:20.200Z,8.50
2017-12-26T09:12:54.659Z,8.60
2017-12-26T09:15:29.366Z,8.60
2017-12-26T09:18:04.724Z,8.80
2017-12-26T09:20:40.023Z,8.80
2017-12-26T09:23:14.753Z,8.80
2017-12-26T09:25:48.947Z,8.80
2017-12-26T09:31:00.195Z,8.50
2017-12-26T09:33:34.354Z,8.40
2017-12-26T09:36:08.156Z,8.40
2017-12-26T09:38:42.886Z,8.40
2017-12-26T09:41:16.933Z,8.30
2017-12-26T09:43:50.701Z,8.30
2017-12-26T09:46:24.332Z,8.20
2017-12-26T09:48:58.110Z,8.10
2017-12-26T09:51:31.824Z,8.10
2017-12-26T09:54:05.746Z,8.00
2017-12-26T09:56:39.468Z,8.00
2017-12-26T09:59:13.453Z,8.00
2017-12-26T10:01:47.258Z,7.90
2017-12-26T10:04:21.020Z,7.80
2017-12-26T10:06:54.755Z,7.80
2017-12-26T10:09:29.268Z,7.70
2017-12-26T10:12:03.482Z,7.70
2017-12-26T10:14:38.176Z,7.70
2017-12-26T10:17:11.945Z,7.70
2017-12-26T10:19:45.888Z,7.60
2017-12-26T10:22:20.218Z,7.60
2017-12-26T10:24:55.120Z,7.60
2017-12-26T10:27:29.829Z,7.60
2017-12-26T10:30:04.858Z,7.70
2017-12-26T10:32:39.099Z,7.70
2017-12-26T10:35:13.029Z,7.70
2017-12-26T10:37:46.802Z,7.70
2017-12-26T10:40:20.622Z,7.70
2017-12-26T10:42:54.644Z,7.80
2017-12-26T10:45:28.436Z,7.80
2017-12-26T10:48:02.223Z,7.70
2017-12-26T10:50:36.929Z,7.70
2017-12-26T10:53:11.154Z,7.70
2017-12-26T10:55:45.024Z,7.70
2017-12-26T10:58:18.824Z,7.70
2017-12-26T11:00:52.613Z,7.80
2017-12-26T11:03:26.470Z,7.80
2017-12-26T11:06:01.070Z,8.00
2017-12-26T11:08:35.124Z,8.00
2017-12-26T11:11:08.998Z,8.00
2017-12-26T11:13:43.727Z,8.10
2017-12-26T11:16:17.796Z,8.10
2017-12-26T11:18:52.447Z,8.10
2017-12-26T11:21:26.597Z,8.00
2017-12-26T11:24:00.524Z,8.00
2017-12-26T11:26:34.332Z,8.00
2017-12-26T11:29:08.183Z,8.00
2017-12-26T11:31:41.924Z,8.00
2017-12-26T11:34:16.579Z,8.00
2017-12-26T11:36:50.574Z,8.00
2017-12-26T11:39:25.057Z,8.00
2017-12-26T11:41:59.580Z,8.10
2017-12-26T11:44:34.541Z,8.00
2017-12-26T11:47:08.658Z,8.00
2017-12-26T11:49:42.426Z,8.00
2017-12-26T11:52:16.490Z,8.00
2017-12-26T11:54:50.375Z,8.00
2017-12-26T11:57:24.022Z,8.00
2017-12-26T11:59:57.991Z,7.90
2017-12-26T12:02:31.808Z,7.90
2017-12-26T12:05:05.771Z,7.90
2017-12-26T12:07:40.392Z,8.00
2017-12-26T12:10:14.588Z,8.00
2017-12-26T12:12:49.580Z,8.00
2017-12-26T12:15:23.262Z,8.00
2017-12-26T12:17:57.056Z,8.00
2017-12-26T12:20:31.011Z,8.00
2017-12-26T12:23:04.686Z,7.90
2017-12-26T12:25:39.101Z,7.90
2017-12-26T12:28:13.286Z,7.90
2017-12-26T12:30:47.102Z,7.90
2017-12-26T12:33:21.601Z,7.90
2017-12-26T12:35:57.083Z,7.90
2017-12-26T12:38:30.798Z,7.90
2017-12-26T12:41:05.808Z,7.90
2017-12-26T12:43:40.550Z,7.90
2017-12-26T12:46:14.528Z,7.90
2017-12-26T12:48:48.252Z,7.90
2017-12-26T12:51:22.903Z,8.00
2017-12-26T12:53:56.911Z,8.00
2017-12-26T12:56:30.759Z,5.00
2017-12-26T12:59:04.545Z,8.00
2017-12-26T13:01:38.561Z,8.00
2017-12-26T13:04:12.339Z,8.00
2017-12-26T13:06:46.289Z,8.00
2017-12-26T13:09:20.100Z,8.00
2017-12-26T13:11:54.994Z,8.00
2017-12-26T13:14:28.940Z,8.00
2017-12-26T13:17:03.352Z,8.10
2017-12-26T13:19:38.336Z,8.10
2017-12-26T13:22:12.465Z,8.20
2017-12-26T13:24:47.099Z,8.20
2017-12-26T13:27:21.277Z,8.20
2017-12-26T13:29:56.280Z,8.20
2017-12-26T13:32:30.774Z,8.20
2017-12-26T13:35:04.537Z,8.20
2017-12-26T13:37:38.458Z,8.10
2017-12-26T13:40:12.262Z,8.10
2017-12-26T13:42:47.124Z,7.90
2017-12-26T13:45:20.988Z,7.80
2017-12-26T13:47:54.956Z,7.80
2017-12-26T13:50:29.497Z,7.80
2017-12-26T13:53:03.657Z,7.90
2017-12-26T13:55:37.755Z,7.80
2017-12-26T13:58:11.428Z,7.80
2017-12-26T14:00:45.181Z,7.80
2017-12-26T14:03:19.776Z,7.80
2017-12-26T14:05:53.860Z,7.80
2017-12-26T14:08:27.665Z,7.80
2017-12-26T14:11:02.279Z,7.80
2017-12-26T14:13:37.076Z,7.80
2017-12-26T14:16:11.928Z,7.70
2017-12-26T14:18:46.916Z,7.70
2017-12-26T14:21:21.441Z,7.60
2017-12-26T14:23:56.138Z,7.50
2017-12-26T14:26:30.713Z,7.50
2017-12-26T14:29:04.805Z,7.50
2017-12-26T14:31:39.904Z,7.50
2017-12-26T14:34:15.488Z,7.50
2017-12-26T14:36:49.517Z,7.40
2017-12-26T14:39:24.219Z,7.40
2017-12-26T14:41:58.612Z,7.40
2017-12-26T14:47:09.044Z,7.40
2017-12-26T14:49:43.240Z,7.20
2017-12-26T14:52:17.137Z,7.30
2017-12-26T14:54:51.012Z,7.30
2017-12-26T14:57:24.739Z,7.30
2017-12-26T14:59:58.702Z,7.30
2017-12-26T15:02:33.185Z,7.20
2017-12-26T15:05:07.501Z,7.20
2017-12-26T15:07:41.302Z,7.20
2017-12-26T15:10:15.861Z,7.10
2017-12-26T15:12:50.795Z,7.10
2017-12-26T15:15:24.829Z,7.10
2017-12-26T15:17:58.625Z,7.10
2017-12-26T15:20:32.405Z,7.10
2017-12-26T15:23:06.144Z,7.00
2017-12-26T15:25:39.982Z,7.00
2017-12-26T15:28:13.920Z,6.90
2017-12-26T15:30:48.606Z,6.90
2017-12-26T15:33:22.560Z,6.90
2017-12-26T15:35:57.210Z,6.90
2017-12-26T15:38:32.398Z,6.90
2017-12-26T15:41:06.614Z,6.90
2017-12-26T15:43:40.472Z,6.90
2017-12-26T15:46:15.209Z,6.90
2017-12-26T15:48:49.597Z,6.90
2017-12-26T15:51:24.056Z,6.90
2017-12-26T15:53:58.629Z,4.70
2017-12-26T15:56:32.443Z,6.90
2017-12-26T15:59:06.129Z,6.80
2017-12-26T16:01:40.350Z,6.80
2017-12-26T16:04:13.908Z,6.80
2017-12-26T16:06:47.561Z,6.80
2017-12-26T16:09:22.158Z,6.80
2017-12-26T16:11:57.029Z,6.70
2017-12-26T16:14:31.031Z,6.70
2017-12-26T16:17:05.806Z,6.70
2017-12-26T16:19:40.635Z,6.70
2017-12-26T16:22:15.374Z,6.60
2017-12-26T16:24:49.297Z,6.60
2017-12-26T16:27:23.076Z,6.60
2017-12-26T16:29:57.114Z,6.60
2017-12-26T16:32:31.474Z,6.60
2017-12-26T16:35:06.763Z,6.60
2017-12-26T16:37:40.858Z,6.70
2017-12-26T16:40:14.601Z,6.70
2017-12-26T16:42:49.108Z,6.70
2017-12-26T16:45:23.048Z,6.70
2017-12-26T16:47:56.700Z,6.60
2017-12-26T16:50:31.443Z,6.60
2017-12-26T16:53:05.593Z,6.60
2017-12-26T16:55:40.198Z,6.60
2017-12-26T16:58:14.300Z,6.60
2017-12-26T17:00:48.601Z,6.60
2017-12-26T17:03:22.864Z,6.50
2017-12-26T17:05:56.743Z,6.50
2017-12-26T17:08:31.382Z,6.40
2017-12-26T17:11:06.514Z,6.40
2017-12-26T17:13:40.557Z,6.40
2017-12-26T17:16:15.126Z,6.40
2017-12-26T17:18:49.267Z,6.40
2017-12-26T17:21:23.146Z,6.40
2017-12-26T17:23:57.788Z,6.40
2017-12-26T17:26:31.806Z,6.30
2017-12-26T17:29:05.684Z,6.30
2017-12-26T17:31:39.701Z,6.40
2017-12-26T17:34:13.525Z,6.40
2017-12-26T17:36:47.914Z,6.30
2017-12-26T17:39:21.796Z,6.30
2017-12-26T17:41:56.326Z,6.30
2017-12-26T17:44:31.003Z,6.30
2017-12-26T17:47:05.422Z,6.30
2017-12-26T17:49:40.026Z,6.30
2017-12-26T17:52:14.137Z,6.30
2017-12-26T17:54:48.765Z,6.20
2017-12-26T17:57:23.355Z,6.20
2017-12-26T17:59:57.613Z,6.30
2017-12-26T18:02:32.650Z,6.20
2017-12-26T18:05:07.114Z,6.20
2017-12-26T18:07:40.861Z,6.20
2017-12-26T18:10:14.614Z,6.20
2017-12-26T18:12:49.057Z,6.20
2017-12-26T18:15:23.126Z,6.20
2017-12-26T18:17:56.851Z,6.30
2017-12-26T18:20:30.639Z,6.20
2017-12-26T18:23:05.100Z,6.20
2017-12-26T18:25:39.959Z,6.30
2017-12-26T18:28:14.296Z,6.40
2017-12-26T18:30:48.566Z,6.50
2017-12-26T18:33:22.363Z,6.60
2017-12-26T18:35:56.206Z,6.60
2017-12-26T18:38:30.075Z,6.60
2017-12-26T18:41:04.582Z,6.70
2017-12-26T18:43:38.599Z,6.70
2017-12-26T18:46:13.117Z,6.70
2017-12-26T18:48:48.305Z,6.70
2017-12-26T18:51:22.674Z,6.70
2017-12-26T18:53:56.926Z,6.80
2017-12-26T18:56:30.588Z,6.80
2017-12-26T18:59:04.527Z,6.70
2017-12-26T19:01:38.339Z,6.70
2017-12-26T19:04:12.322Z,6.70
2017-12-26T19:06:46.143Z,6.60
2017-12-26T19:09:19.967Z,6.60
2017-12-26T19:11:53.931Z,6.60
2017-12-26T19:14:28.621Z,6.60
2017-12-26T19:17:02.832Z,6.70
2017-12-26T19:19:36.477Z,6.60
2017-12-26T19:22:10.263Z,6.70
2017-12-26T19:24:44.190Z,6.60
2017-12-26T19:27:18.268Z,6.50
2017-12-26T19:29:52.751Z,6.50
2017-12-26T19:32:27.622Z,6.50
2017-12-26T19:35:02.436Z,6.40
2017-12-26T19:37:36.668Z,6.40
2017-12-26T19:40:10.428Z,6.40
2017-12-26T19:42:44.990Z,6.30
2017-12-26T19:45:19.768Z,6.30
2017-12-26T19:47:54.124Z,6.30
2017-12-26T19:50:27.873Z,6.30
2017-12-26T19:53:01.729Z,6.30
2017-12-26T19:55:35.611Z,6.30
2017-12-26T19:58:10.169Z,6.30
2017-12-26T20:00:45.194Z,6.30
2017-12-26T20:03:19.529Z,6.20
2017-12-26T20:05:53.874Z,6.20
2017-12-26T20:08:27.860Z,6.30
2017-12-26T20:11:02.470Z,6.20
2017-12-26T20:13:36.342Z,6.20
2017-12-26T20:16:10.802Z,6.20
2017-12-26T20:18:44.966Z,6.20
2017-12-26T20:21:19.619Z,6.10
2017-12-26T20:23:54.469Z,6.20
2017-12-26T20:26:28.665Z,6.10
2017-12-26T20:29:03.393Z,6.20
2017-12-26T20:31:38.269Z,6.20
2017-12-26T20:34:12.642Z,6.20
2017-12-26T20:36:46.500Z,6.30
2017-12-26T20:39:21.009Z,6.20
2017-12-26T20:41:56.022Z,6.20
2017-12-26T20:44:29.766Z,6.20
2017-12-26T20:47:04.020Z,6.20
2017-12-26T20:49:38.052Z,6.10
2017-12-26T20:52:12.169Z,6.10
2017-12-26T20:54:46.048Z,6.10
2017-12-26T20:57:19.835Z,6.00
2017-12-26T20:59:53.824Z,6.00
2017-12-26T21:02:27.582Z,6.00
2017-12-26T21:05:01.485Z,6.00
2017-12-26T21:07:35.308Z,4.30
2017-12-26T21:10:09.929Z,5.90
2017-12-26T21:12:44.453Z,5.90
2017-12-26T21:15:19.269Z,5.90
2017-12-26T21:17:54.094Z,5.90
2017-12-26T21:20:28.732Z,5.90
2017-12-26T21:23:02.628Z,5.60
2017-12-26T21:25:36.473Z,5.80
2017-12-26T21:28:11.062Z,5.80
2017-12-26T21:30:45.695Z,5.80
2017-12-26T21:33:19.452Z,5.80
2017-12-26T21:35:53.996Z,5.70
2017-12-26T21:38:27.953Z,5.80
2017-12-26T21:41:02.736Z,5.70
2017-12-26T21:43:36.852Z,5.70
2017-12-26T21:46:11.201Z,5.70
2017-12-26T21:48:45.171Z,5.70
2017-12-26T21:51:19.055Z,5.70
2017-12-26T21:53:53.597Z,5.70
2017-12-26T21:56:28.051Z,5.70
2017-12-26T21:59:02.311Z,5.70
2017-12-26T22:01:36.484Z,5.70
2017-12-26T22:04:11.050Z,5.70
2017-12-26T22:06:45.602Z,5.70
2017-12-26T22:09:19.641Z,5.70
2017-12-26T22:11:54.346Z,5.70
2017-12-26T22:14:28.283Z,5.70
2017-12-26T22:17:02.811Z,5.60
2017-12-26T22:19:36.564Z,5.60
2017-12-26T22:22:10.380Z,5.60
2017-12-26T22:24:44.832Z,5.60
2017-12-26T22:27:19.878Z,5.60
2017-12-26T22:29:54.095Z,5.60
2017-12-26T22:32:27.844Z,5.60
2017-12-26T22:35:02.285Z,5.50
2017-12-26T22:37:36.346Z,5.50
2017-12-26T22:40:10.811Z,5.50
2017-12-26T22:42:44.829Z,5.50
2017-12-26T22:45:19.377Z,5.50
2017-12-26T22:47:54.080Z,5.50
2017-12-26T22:50:28.846Z,5.50
2017-12-26T22:53:02.829Z,5.50
2017-12-26T22:55:36.814Z,5.50
2017-12-26T22:58:11.205Z,5.50
2017-12-26T23:00:45.372Z,5.50
2017-12-26T23:03:19.883Z,5.50
2017-12-26T23:05:54.008Z,5.50
2017-12-26T23:08:27.938Z,5.40
2017-12-26T23:11:01.738Z,5.40
2017-12-26T23:13:35.412Z,5.50
2017-12-26T23:16:15.703Z,5.50
2017-12-26T23:18:50.074Z,5.40
2017-12-26T23:21:24.705Z,5.40
2017-12-26T23:24:04.598Z,5.40
2017-12-26T23:26:44.840Z,5.40
2017-12-26T23:29:25.083Z,5.40
2017-12-26T23:32:05.004Z,5.30
2017-12-26T23:34:45.325Z,5.30
2017-12-26T23:37:26.209Z,5.30
2017-12-26T23:40:06.465Z,5.30
2017-12-26T23:42:46.576Z,5.30
2017-12-26T23:45:26.058Z,5.20
2017-12-26T23:48:06.582Z,5.20
2017-12-26T23:50:46.732Z,5.20
2017-12-26T23:53:26.406Z,5.20
2017-12-26T23:59:09.791Z,5.10
